Time;durP1;ratioP1;P1;durP2;ratioP2;P2;SDS_P1;SDS_P2;PMS_P1;PMS_P2;Temp;Humidity;BMP_temperature;BMP_pressure;BME280_temperature;BME280_humidity;BME280_pressure;Samples;Min_cycle;Max_cycle;Signal;HPM_P1;HPM_P2
2020/12/31 00:01:32;;;;;;;;;;;1.90;99.90;;;;;;5031374;28;20297;-70
2020/12/31 00:03:58;;;;;;;;;;;1.90;99.90;;;;;;5032261;28;20279;-68
2020/12/31 00:06:24;;;;;;;;;;;2.00;99.90;;;;;;5029546;28;19953;-69
2020/12/31 00:08:50;;;;;;;;;;;2.00;99.90;;;;;;5012392;28;20451;-69
2020/12/31 00:11:16;;;;;;;;;;;2.10;99.90;;;;;;5011824;28;20386;-69
2020/12/31 00:13:42;;;;;;;;;;;2.20;99.90;;;;;;5014671;28;19926;-70
2020/12/31 00:16:08;;;;;;;;;;;2.20;99.90;;;;;;5016204;28;20433;-70
2020/12/31 00:18:35;;;;;;;;;;;2.30;99.90;;;;;;5016210;28;19925;-69
2020/12/31 00:21:01;;;;;;;;;;;2.30;99.90;;;;;;5016953;28;19925;-70
2020/12/31 00:23:27;;;;;;;;;;;2.30;99.90;;;;;;4996692;28;19926;-69
2020/12/31 00:25:53;;;;;;;;;;;2.40;99.90;;;;;;4996471;28;19926;-69
2020/12/31 00:28:20;;;;;;;;;;;2.30;99.90;;;;;;4996625;28;19925;-69
2020/12/31 00:30:46;;;;;;;;;;;2.30;99.90;;;;;;4995999;28;19926;-69
2020/12/31 00:33:13;;;;;;;;;;;2.30;99.90;;;;;;4996435;28;19933;-70
2020/12/31 00:35:40;;;;;;;;;;;2.30;99.90;;;;;;5017147;28;20317;-70
2020/12/31 00:38:06;;;;;;;;;;;2.40;99.90;;;;;;5035636;28;20401;-70
2020/12/31 00:40:33;;;;;;;;;;;2.40;99.90;;;;;;5035204;28;20043;-70
2020/12/31 00:42:59;;;;;;;;;;;2.40;99.90;;;;;;5035301;28;19932;-70
2020/12/31 00:45:25;;;;;;;;;;;2.40;99.90;;;;;;5035390;28;19925;-70
2020/12/31 00:47:51;;;;;;;;;;;2.50;99.90;;;;;;5035467;28;20375;-70
2020/12/31 00:50:17;;;;;;;;;;;2.50;99.90;;;;;;5034644;28;19925;-70
2020/12/31 00:52:44;;;;;;;;;;;2.50;99.90;;;;;;5035279;28;20378;-70
2020/12/31 00:55:10;;;;;;;;;;;2.50;99.90;;;;;;5034744;28;20267;-70
2020/12/31 00:57:36;;;;;;;;;;;2.50;99.90;;;;;;5035158;28;19932;-70
2020/12/31 01:00:04;;;;;;;;;;;2.50;99.90;;;;;;5034734;28;19929;-70
2020/12/31 01:02:30;;;;;;;;;;;2.60;99.90;;;;;;5035301;28;19925;-70
2020/12/31 01:04:56;;;;;;;;;;;2.60;99.90;;;;;;5016226;28;19925;-70
2020/12/31 01:07:22;;;;;;;;;;;2.60;99.90;;;;;;5015382;28;19926;-70
2020/12/31 01:09:49;;;;;;;;;;;2.60;99.90;;;;;;5014877;28;20306;-70
2020/12/31 01:12:15;;;;;;;;;;;2.60;99.90;;;;;;5014992;28;19929;-70
2020/12/31 01:14:41;;;;;;;;;;;2.60;99.90;;;;;;5015087;28;20316;-70
2020/12/31 01:17:07;;;;;;;;;;;2.60;99.90;;;;;;5014933;28;19929;-70
2020/12/31 01:19:33;;;;;;;;;;;2.60;99.90;;;;;;5014863;28;19932;-70
2020/12/31 01:21:59;;;;;;;;;;;2.60;99.90;;;;;;5014684;28;19926;-70
2020/12/31 01:24:25;;;;;;;;;;;2.60;99.90;;;;;;5014472;28;20406;-70
2020/12/31 01:26:52;;;;;;;;;;;2.50;99.90;;;;;;5014837;28;19926;-70
2020/12/31 01:29:18;;;;;;;;;;;2.50;99.90;;;;;;5014984;28;19925;-70
2020/12/31 01:31:46;;;;;;;;;;;2.50;99.90;;;;;;5014181;28;20456;-70
2020/12/31 01:34:12;;;;;;;;;;;2.50;99.90;;;;;;5014786;28;19995;-70
2020/12/31 01:36:38;;;;;;;;;;;2.50;99.90;;;;;;5014628;28;20378;-70
2020/12/31 01:39:04;;;;;;;;;;;2.50;99.90;;;;;;5014411;28;19930;-70
2020/12/31 01:41:30;;;;;;;;;;;2.50;99.90;;;;;;5014291;28;20448;-70
2020/12/31 01:44:01;;;;;;;;;;;2.40;99.90;;;;;;5014716;28;19980;-70
2020/12/31 01:46:27;;;;;;;;;;;2.40;99.90;;;;;;5014454;28;20374;-70
2020/12/31 01:48:53;;;;;;;;;;;2.40;99.90;;;;;;5014621;28;19932;-70
2020/12/31 01:51:19;;;;;;;;;;;2.40;99.90;;;;;;5014063;28;20274;-70
2020/12/31 01:53:45;;;;;;;;;;;2.30;99.90;;;;;;5014327;28;19979;-70
2020/12/31 01:56:12;;;;;;;;;;;2.40;99.90;;;;;;5014278;28;20367;-70
2020/12/31 01:58:38;;;;;;;;;;;2.40;99.90;;;;;;5034159;28;19936;-70
2020/12/31 02:01:05;;;;;;;;;;;2.40;99.90;;;;;;5018643;28;19926;-70
2020/12/31 02:03:31;;;;;;;;;;;2.30;99.90;;;;;;5014195;28;19925;-70
2020/12/31 02:05:57;;;;;;;;;;;2.30;99.90;;;;;;5014259;28;20402;-70
2020/12/31 02:08:23;;;;;;;;;;;2.30;99.90;;;;;;5013998;28;19933;-69
2020/12/31 02:10:50;;;;;;;;;;;2.30;99.90;;;;;;5025515;28;20051;-69
2020/12/31 02:13:16;;;;;;;;;;;2.30;99.90;;;;;;5033941;28;19933;-70
2020/12/31 02:15:42;;;;;;;;;;;2.30;99.90;;;;;;5033347;28;19925;-69
2020/12/31 02:18:09;;;;;;;;;;;2.40;99.90;;;;;;5021651;28;19980;-70
2020/12/31 02:20:35;;;;;;;;;;;2.40;99.90;;;;;;5013585;28;20349;-70
2020/12/31 02:23:02;;;;;;;;;;;2.40;99.90;;;;;;5013861;28;19926;-70
2020/12/31 02:25:28;;;;;;;;;;;2.30;99.90;;;;;;5013765;28;19925;-70
2020/12/31 02:27:53;;;;;;;;;;;2.40;99.90;;;;;;5013769;28;19925;-70
2020/12/31 02:30:19;;;;;;;;;;;2.40;99.90;;;;;;5023368;28;20271;-70
2020/12/31 02:32:45;;;;;;;;;;;2.40;99.90;;;;;;5033211;28;19971;-69
2020/12/31 02:35:12;;;;;;;;;;;2.40;99.90;;;;;;5023335;28;19929;-69
2020/12/31 02:37:38;;;;;;;;;;;2.40;99.90;;;;;;5013320;28;20451;-70
2020/12/31 02:40:04;;;;;;;;;;;2.40;99.90;;;;;;5013254;28;20045;-70
2020/12/31 02:42:30;;;;;;;;;;;2.40;99.90;;;;;;5013467;28;19925;-70
2020/12/31 02:44:56;;;;;;;;;;;2.40;99.90;;;;;;5013501;28;19992;-69
2020/12/31 02:47:22;;;;;;;;;;;2.30;99.90;;;;;;5032090;28;19959;-70
2020/12/31 02:49:48;;;;;;;;;;;2.20;99.90;;;;;;5032711;28;19932;-69
2020/12/31 02:52:14;;;;;;;;;;;2.20;99.90;;;;;;5031342;28;20396;-70
2020/12/31 02:54:40;;;;;;;;;;;2.20;99.90;;;;;;5033006;28;19925;-70
2020/12/31 02:57:07;;;;;;;;;;;2.20;99.90;;;;;;5033120;28;19925;-70
2020/12/31 02:59:33;;;;;;;;;;;2.10;99.90;;;;;;5032875;28;19932;-70
2020/12/31 03:01:59;;;;;;;;;;;2.10;99.90;;;;;;5032527;28;19925;-70
2020/12/31 03:04:25;;;;;;;;;;;2.10;99.90;;;;;;5032969;28;19925;-70
2020/12/31 03:06:51;;;;;;;;;;;2.10;99.90;;;;;;5027098;28;19971;-70
2020/12/31 03:09:17;;;;;;;;;;;2.10;99.90;;;;;;5013104;28;19926;-70
2020/12/31 03:11:43;;;;;;;;;;;2.10;99.90;;;;;;5012639;28;19933;-70
2020/12/31 03:14:10;;;;;;;;;;;2.10;99.90;;;;;;5012893;28;19949;-70
2020/12/31 03:16:36;;;;;;;;;;;2.10;99.90;;;;;;5013052;28;19925;-70
2020/12/31 03:19:02;;;;;;;;;;;2.10;99.90;;;;;;5014057;28;20423;-70
2020/12/31 03:21:29;;;;;;;;;;;2.10;99.90;;;;;;5012313;28;20056;-70
2020/12/31 03:23:55;;;;;;;;;;;2.20;99.90;;;;;;5013074;28;19976;-70
2020/12/31 03:26:21;;;;;;;;;;;2.20;99.90;;;;;;5013015;28;19925;-70
2020/12/31 03:28:47;;;;;;;;;;;2.20;99.90;;;;;;5012740;28;19932;-70
2020/12/31 03:31:14;;;;;;;;;;;2.20;99.90;;;;;;5012357;28;19932;-70
2020/12/31 03:33:39;;;;;;;;;;;2.20;99.90;;;;;;5012831;28;19925;-69
2020/12/31 03:36:05;;;;;;;;;;;2.20;99.90;;;;;;5012898;28;19929;-69
2020/12/31 03:38:31;;;;;;;;;;;2.20;99.90;;;;;;5012544;28;19933;-69
2020/12/31 03:40:57;;;;;;;;;;;2.20;99.90;;;;;;5012358;28;19932;-70
2020/12/31 03:43:23;;;;;;;;;;;2.20;99.90;;;;;;5012523;28;20298;-70
2020/12/31 03:45:49;;;;;;;;;;;2.30;99.90;;;;;;5012622;28;19930;-70
2020/12/31 03:48:16;;;;;;;;;;;2.30;99.90;;;;;;5022989;28;20317;-70
2020/12/31 03:50:42;;;;;;;;;;;2.30;99.90;;;;;;5035947;28;20389;-70
2020/12/31 03:53:08;;;;;;;;;;;2.30;99.90;;;;;;5036488;28;19925;-69
2020/12/31 03:55:34;;;;;;;;;;;2.30;99.90;;;;;;5036308;28;19925;-70
2020/12/31 03:58:00;;;;;;;;;;;2.30;99.90;;;;;;5036212;28;20373;-70
2020/12/31 04:00:26;;;;;;;;;;;2.30;99.90;;;;;;5035802;28;19925;-70
2020/12/31 04:02:52;;;;;;;;;;;2.30;99.90;;;;;;5036052;28;19925;-70
2020/12/31 04:05:19;;;;;;;;;;;2.30;99.90;;;;;;5036057;28;19932;-70
2020/12/31 04:07:45;;;;;;;;;;;2.30;99.90;;;;;;5036266;28;19929;-70
2020/12/31 04:10:11;;;;;;;;;;;2.30;99.90;;;;;;5035532;28;19986;-70
2020/12/31 04:12:37;;;;;;;;;;;2.40;99.90;;;;;;5035941;28;20461;-70
2020/12/31 04:15:03;;;;;;;;;;;2.30;99.90;;;;;;5024387;28;19926;-69
2020/12/31 04:17:29;;;;;;;;;;;2.40;99.90;;;;;;5016277;28;20378;-70
2020/12/31 04:19:55;;;;;;;;;;;2.30;99.90;;;;;;5015941;28;20314;-70
2020/12/31 04:22:22;;;;;;;;;;;2.40;99.90;;;;;;5016276;28;19926;-69
2020/12/31 04:24:50;;;;;;;;;;;2.40;99.90;;;;;;5016116;28;19948;-70
2020/12/31 04:27:16;;;;;;;;;;;2.40;99.90;;;;;;5015971;28;19981;-70
2020/12/31 04:29:42;;;;;;;;;;;2.40;99.90;;;;;;5015913;28;19933;-70
2020/12/31 04:32:10;;;;;;;;;;;2.40;99.90;;;;;;5015874;28;19925;-69
2020/12/31 04:34:37;;;;;;;;;;;2.40;99.90;;;;;;5015865;28;19953;-70
2020/12/31 04:37:04;;;;;;;;;;;2.40;99.90;;;;;;5015952;28;19925;-69
2020/12/31 04:39:31;;;;;;;;;;;2.50;99.90;;;;;;5015618;28;19929;-69
2020/12/31 04:41:57;;;;;;;;;;;2.40;99.90;;;;;;5015754;28;19934;-70
2020/12/31 04:44:23;;;;;;;;;;;2.40;99.90;;;;;;5035479;28;19932;-69
2020/12/31 04:46:53;;;;;;;;;;;2.40;99.90;;;;;;5035551;28;20302;-70
2020/12/31 04:49:20;;;;;;;;;;;2.50;99.90;;;;;;5035340;28;19940;-69
2020/12/31 04:51:47;;;;;;;;;;;2.50;99.90;;;;;;5035034;28;19925;-69
2020/12/31 04:54:14;;;;;;;;;;;2.50;99.90;;;;;;5035146;28;20386;-69
2020/12/31 04:56:41;;;;;;;;;;;2.50;99.90;;;;;;5034841;28;19956;-69
2020/12/31 04:59:07;;;;;;;;;;;2.50;99.90;;;;;;5014435;28;19925;-69
2020/12/31 05:01:33;;;;;;;;;;;2.50;99.90;;;;;;5015144;28;19926;-69
2020/12/31 05:03:59;;;;;;;;;;;2.50;99.90;;;;;;5015522;28;19925;-70
2020/12/31 05:06:26;;;;;;;;;;;2.50;99.90;;;;;;5015257;28;19929;-69
2020/12/31 05:08:52;;;;;;;;;;;2.50;99.90;;;;;;5015333;28;19949;-69
2020/12/31 05:11:19;;;;;;;;;;;2.50;99.90;;;;;;5023547;28;19925;-69
2020/12/31 05:13:46;;;;;;;;;;;2.50;99.90;;;;;;5034853;28;19955;-70
2020/12/31 05:16:13;;;;;;;;;;;2.50;99.90;;;;;;5035145;28;19925;-69
2020/12/31 05:18:38;;;;;;;;;;;2.50;99.90;;;;;;5034669;28;20436;-69
2020/12/31 05:21:14;;;;;;;;;;;2.50;99.90;;;;;;5034524;28;19929;-69
2020/12/31 05:23:40;;;;;;;;;;;2.50;99.90;;;;;;5034734;28;19987;-69
2020/12/31 05:26:06;;;;;;;;;;;2.50;99.90;;;;;;5034435;28;20400;-69
2020/12/31 05:28:33;;;;;;;;;;;2.50;99.90;;;;;;5034861;28;19925;-69
2020/12/31 05:31:01;;;;;;;;;;;2.50;99.90;;;;;;5034153;28;19925;-70
2020/12/31 05:33:28;;;;;;;;;;;2.40;99.90;;;;;;5034372;28;20370;-70
2020/12/31 05:36:10;;;;;;;;;;;2.40;99.90;;;;;;5034575;28;19932;-69
2020/12/31 05:38:36;;;;;;;;;;;2.40;99.90;;;;;;5033202;28;19925;-70
2020/12/31 05:41:03;;;;;;;;;;;2.40;99.90;;;;;;5014291;28;19926;-70
2020/12/31 05:43:29;;;;;;;;;;;2.30;99.90;;;;;;5014620;28;19926;-69
2020/12/31 05:46:05;;;;;;;;;;;2.30;99.90;;;;;;5014533;28;19929;-69
2020/12/31 05:48:31;;;;;;;;;;;2.20;99.90;;;;;;5014481;28;19933;-70
2020/12/31 05:50:57;;;;;;;;;;;2.10;99.90;;;;;;5013965;28;19929;-69
2020/12/31 05:53:23;;;;;;;;;;;2.00;99.90;;;;;;5015564;28;19926;-69
2020/12/31 05:55:53;;;;;;;;;;;2.00;99.90;;;;;;5014507;28;19926;-69
2020/12/31 05:58:22;;;;;;;;;;;1.90;99.90;;;;;;5014249;28;19980;-69
2020/12/31 06:00:59;;;;;;;;;;;1.80;99.90;;;;;;5013915;28;19925;-69
2020/12/31 06:03:34;;;;;;;;;;;1.80;99.90;;;;;;5014100;28;19936;-69
2020/12/31 06:06:03;;;;;;;;;;;1.70;99.90;;;;;;5014295;28;20390;-69
2020/12/31 06:08:31;;;;;;;;;;;1.70;99.90;;;;;;5014235;28;19932;-70
2020/12/31 06:11:01;;;;;;;;;;;1.60;99.90;;;;;;5013850;28;19926;-70
2020/12/31 06:13:33;;;;;;;;;;;1.60;99.90;;;;;;5014046;28;19925;-70
2020/12/31 06:16:02;;;;;;;;;;;1.60;99.90;;;;;;5014065;28;19932;-70
2020/12/31 06:18:31;;;;;;;;;;;1.60;99.90;;;;;;5013749;28;20533;-70
2020/12/31 06:21:00;;;;;;;;;;;1.50;99.90;;;;;;5015682;28;19925;-70
2020/12/31 06:23:34;;;;;;;;;;;1.50;99.90;;;;;;5033748;28;19929;-69
2020/12/31 06:26:06;;;;;;;;;;;1.40;99.90;;;;;;5033745;28;19924;-69
2020/12/31 06:28:34;;;;;;;;;;;1.40;99.90;;;;;;5033747;28;19925;-69
2020/12/31 06:31:00;;;;;;;;;;;1.30;99.90;;;;;;5033234;28;19975;-70
2020/12/31 06:33:29;;;;;;;;;;;1.20;99.90;;;;;;5033467;28;19925;-70
2020/12/31 06:35:56;;;;;;;;;;;1.20;99.90;;;;;;5033127;28;19925;-70
2020/12/31 06:38:29;;;;;;;;;;;1.20;99.90;;;;;;5033296;28;19932;-70
2020/12/31 06:40:55;;;;;;;;;;;1.10;99.90;;;;;;5028807;28;20279;-69
2020/12/31 06:43:29;;;;;;;;;;;1.00;99.90;;;;;;5013818;28;20289;-70
2020/12/31 06:45:55;;;;;;;;;;;0.90;99.90;;;;;;5013470;28;19935;-70
2020/12/31 06:48:34;;;;;;;;;;;0.80;99.90;;;;;;5013540;28;19925;-70
2020/12/31 06:51:02;;;;;;;;;;;0.80;99.90;;;;;;5029680;28;19929;-70
2020/12/31 06:53:29;;;;;;;;;;;0.70;99.90;;;;;;5032940;28;20541;-70
2020/12/31 06:55:55;;;;;;;;;;;0.70;99.90;;;;;;5033058;28;19937;-70
2020/12/31 06:58:21;;;;;;;;;;;0.70;99.90;;;;;;5032976;28;20313;-70
2020/12/31 07:00:47;;;;;;;;;;;0.60;99.90;;;;;;5032728;28;19932;-70
2020/12/31 07:03:13;;;;;;;;;;;0.60;99.90;;;;;;5032983;28;19947;-69
2020/12/31 07:05:39;;;;;;;;;;;0.60;99.90;;;;;;5016821;28;19933;-70
2020/12/31 07:08:06;;;;;;;;;;;0.60;99.90;;;;;;5013230;28;20114;-69
2020/12/31 07:10:44;;;;;;;;;;;0.60;99.90;;;;;;5012929;28;19932;-69
2020/12/31 07:13:25;;;;;;;;;;;0.60;99.90;;;;;;5013176;28;19932;-70
2020/12/31 07:15:51;;;;;;;;;;;0.60;99.90;;;;;;5012834;28;19926;-69
2020/12/31 07:18:19;;;;;;;;;;;0.60;99.90;;;;;;5021156;28;19932;-70
2020/12/31 07:20:45;;;;;;;;;;;0.60;99.90;;;;;;5032459;28;19925;-70
2020/12/31 07:23:12;;;;;;;;;;;0.50;99.90;;;;;;5032298;28;19931;-70
2020/12/31 07:25:42;;;;;;;;;;;0.50;99.90;;;;;;5032392;28;19933;-70
2020/12/31 07:28:15;;;;;;;;;;;0.60;99.90;;;;;;5032727;28;19999;-70
2020/12/31 07:30:49;;;;;;;;;;;0.70;99.90;;;;;;5031860;28;20317;-69
2020/12/31 07:33:33;;;;;;;;;;;0.70;99.90;;;;;;5032374;28;19936;-69
2020/12/31 07:35:59;;;;;;;;;;;0.80;99.90;;;;;;5032630;28;19925;-70
2020/12/31 07:38:26;;;;;;;;;;;0.90;99.90;;;;;;5032365;28;19928;-69
2020/12/31 07:40:53;;;;;;;;;;;0.90;99.90;;;;;;5027611;28;20356;-70
2020/12/31 07:43:19;;;;;;;;;;;1.00;99.90;;;;;;5012478;28;19926;-70
2020/12/31 07:45:46;;;;;;;;;;;1.10;99.90;;;;;;5012409;28;20413;-69
2020/12/31 07:48:13;;;;;;;;;;;1.20;99.90;;;;;;5012772;28;19925;-70
2020/12/31 07:50:39;;;;;;;;;;;1.30;99.90;;;;;;5025742;28;19932;-69
2020/12/31 07:53:05;;;;;;;;;;;1.40;99.90;;;;;;5032302;28;19925;-69
2020/12/31 07:55:35;;;;;;;;;;;1.50;99.90;;;;;;5032155;28;19991;-69
2020/12/31 07:58:01;;;;;;;;;;;1.60;99.90;;;;;;5031936;28;19997;-69
2020/12/31 08:00:27;;;;;;;;;;;1.70;99.90;;;;;;5031852;28;19947;-69
2020/12/31 08:02:55;;;;;;;;;;;1.60;99.90;;;;;;5031928;28;19925;-69
2020/12/31 08:05:22;;;;;;;;;;;1.60;99.90;;;;;;5018296;28;19956;-67
2020/12/31 08:07:52;;;;;;;;;;;1.70;99.90;;;;;;5011559;28;20382;-69
2020/12/31 08:10:18;;;;;;;;;;;1.80;99.90;;;;;;5011722;28;20298;-69
2020/12/31 08:12:54;;;;;;;;;;;2.00;99.90;;;;;;5013318;28;19925;-69
2020/12/31 08:15:20;;;;;;;;;;;2.50;99.90;;;;;;5013425;28;20016;-71
2020/12/31 08:17:48;;;;;;;;;;;2.90;99.90;;;;;;5018802;28;19926;-70
2020/12/31 08:20:16;;;;;;;;;;;3.00;99.90;;;;;;5030615;28;19925;-70
2020/12/31 08:22:42;;;;;;;;;;;2.90;99.90;;;;;;5027171;28;20348;-72
2020/12/31 08:25:10;;;;;;;;;;;2.90;99.90;;;;;;5023893;28;20338;-72
2020/12/31 08:27:37;;;;;;;;;;;3.40;99.90;;;;;;5012332;28;19925;-71
2020/12/31 08:30:06;;;;;;;;;;;4.10;99.90;;;;;;5011929;28;20016;-72
2020/12/31 08:32:37;;;;;;;;;;;4.80;99.90;;;;;;5028721;28;19967;-71
2020/12/31 08:35:04;;;;;;;;;;;5.40;99.90;;;;;;5034631;28;19925;-72
2020/12/31 08:37:30;;;;;;;;;;;5.90;99.90;;;;;;5034830;28;20305;-70
2020/12/31 08:39:56;;;;;;;;;;;6.20;99.90;;;;;;5026718;28;19929;-71
2020/12/31 08:42:24;;;;;;;;;;;6.80;99.90;;;;;;5035650;28;19925;-72
2020/12/31 08:44:52;;;;;;;;;;;7.60;99.90;;;;;;5034768;28;19925;-70
2020/12/31 08:47:19;;;;;;;;;;;8.10;99.90;;;;;;5034557;28;19925;-70
2020/12/31 08:49:52;;;;;;;;;;;8.40;99.90;;;;;;5035053;28;19929;-70
2020/12/31 08:52:18;;;;;;;;;;;8.80;99.90;;;;;;5025563;28;19925;-70
2020/12/31 08:54:44;;;;;;;;;;;9.40;98.80;;;;;;5034587;28;19929;-70
2020/12/31 08:57:14;;;;;;;;;;;9.50;96.70;;;;;;5035167;28;19933;-70
2020/12/31 08:59:40;;;;;;;;;;;9.70;94.70;;;;;;5035065;28;19926;-68
2020/12/31 09:02:06;;;;;;;;;;;10.20;92.70;;;;;;5019727;28;19936;-70
2020/12/31 09:04:32;;;;;;;;;;;10.60;90.70;;;;;;5034984;28;20389;-69
2020/12/31 09:07:08;;;;;;;;;;;10.80;89.30;;;;;;5029268;28;19937;-69
2020/12/31 09:09:34;;;;;;;;;;;11.80;84.30;;;;;;5015343;28;19929;-74
2020/12/31 09:12:03;;;;;;;;;;;11.80;80.00;;;;;;5014859;28;20350;-74
2020/12/31 09:14:29;;;;;;;;;;;11.80;79.00;;;;;;5015205;28;19925;-74
2020/12/31 09:16:56;;;;;;;;;;;11.90;77.80;;;;;;5015495;28;19930;-73
2020/12/31 09:19:22;;;;;;;;;;;12.00;77.40;;;;;;5015189;28;19956;-73
2020/12/31 09:21:49;;;;;;;;;;;11.60;75.20;;;;;;5014766;28;19925;-74
2020/12/31 09:24:16;;;;;;;;;;;11.90;76.10;;;;;;5015282;28;19933;-74
2020/12/31 09:26:51;;;;;;;;;;;11.30;77.40;;;;;;5015137;28;19925;-70
2020/12/31 09:29:17;;;;;;;;;;;10.50;80.10;;;;;;5014633;28;19925;-70
2020/12/31 09:31:43;;;;;;;;;;;9.40;86.40;;;;;;5014151;28;19932;-71
2020/12/31 09:34:09;;;;;;;;;;;8.70;91.60;;;;;;5014586;28;20283;-71
2020/12/31 09:36:35;;;;;;;;;;;8.10;95.80;;;;;;5025741;28;19925;-70
2020/12/31 09:39:02;;;;;;;;;;;7.10;99.90;;;;;;5033201;28;19932;-71
2020/12/31 09:41:28;;;;;;;;;;;6.40;99.90;;;;;;5033436;28;20332;-71
2020/12/31 09:43:54;;;;;;;;;;;5.80;99.90;;;;;;5034081;28;19932;-71
2020/12/31 09:46:21;;;;;;;;;;;5.70;99.90;;;;;;5031594;28;19932;-74
2020/12/31 09:48:48;;;;;;;;;;;5.40;99.90;;;;;;5021374;28;19925;-73
2020/12/31 09:51:14;;;;;;;;;;;5.40;99.90;;;;;;5022819;28;19925;-76
2020/12/31 09:53:40;;;;;;;;;;;5.00;99.90;;;;;;5025927;28;19925;-74
2020/12/31 09:56:07;;;;;;;;;;;4.80;99.90;;;;;;5033931;28;19933;-73
2020/12/31 09:58:33;;;;;;;;;;;4.50;99.90;;;;;;5033937;28;19979;-73
2020/12/31 10:00:59;;;;;;;;;;;4.20;99.90;;;;;;5033596;28;19928;-74
2020/12/31 10:03:25;;;;;;;;;;;4.20;99.90;;;;;;5034045;28;20011;-74
2020/12/31 10:05:51;;;;;;;;;;;4.20;99.90;;;;;;5034297;28;20019;-73
2020/12/31 10:08:17;;;;;;;;;;;4.20;99.90;;;;;;5034037;28;19925;-72
2020/12/31 10:10:43;;;;;;;;;;;4.20;99.90;;;;;;5033414;28;19925;-70
2020/12/31 10:13:10;;;;;;;;;;;4.30;99.90;;;;;;5033570;28;20061;-70
2020/12/31 10:15:36;;;;;;;;;;;4.30;99.90;;;;;;5033550;28;19929;-69
2020/12/31 10:18:02;;;;;;;;;;;4.20;99.90;;;;;;5033744;28;20293;-69
2020/12/31 10:20:28;;;;;;;;;;;4.30;99.90;;;;;;5033432;28;19932;-69
2020/12/31 10:22:54;;;;;;;;;;;4.40;99.90;;;;;;5039032;28;19932;-68
2020/12/31 10:25:20;;;;;;;;;;;4.50;99.90;;;;;;5033475;28;19925;-68
2020/12/31 10:27:46;;;;;;;;;;;4.50;99.90;;;;;;5033179;28;19925;-68
2020/12/31 10:30:13;;;;;;;;;;;4.50;99.90;;;;;;5032923;28;19948;-68
2020/12/31 10:32:39;;;;;;;;;;;4.50;99.90;;;;;;5033383;28;19929;-68
2020/12/31 10:35:05;;;;;;;;;;;4.60;99.90;;;;;;5033399;28;19963;-68
2020/12/31 10:37:31;;;;;;;;;;;4.60;99.90;;;;;;5033204;28;19925;-68
2020/12/31 10:39:57;;;;;;;;;;;4.60;99.90;;;;;;5032814;28;19925;-68
2020/12/31 10:42:23;;;;;;;;;;;4.80;99.90;;;;;;5033006;28;19979;-69
2020/12/31 10:44:49;;;;;;;;;;;4.90;99.90;;;;;;5033251;28;20297;-68
2020/12/31 10:47:16;;;;;;;;;;;4.80;99.90;;;;;;5033304;28;19931;-68
2020/12/31 10:49:42;;;;;;;;;;;4.80;99.90;;;;;;5033237;28;20309;-68
2020/12/31 10:52:08;;;;;;;;;;;4.80;99.90;;;;;;5032891;28;20344;-68
2020/12/31 10:54:34;;;;;;;;;;;4.80;99.90;;;;;;5032914;28;19932;-68
2020/12/31 10:57:00;;;;;;;;;;;4.80;99.90;;;;;;5032148;28;19925;-68
2020/12/31 10:59:26;;;;;;;;;;;4.90;99.90;;;;;;5033032;28;19925;-68
2020/12/31 11:01:52;;;;;;;;;;;5.00;99.90;;;;;;5032474;28;20337;-68
2020/12/31 11:04:20;;;;;;;;;;;5.00;99.90;;;;;;5032103;28;22518;-69
2020/12/31 11:06:46;;;;;;;;;;;5.20;99.90;;;;;;5032889;28;19936;-68
2020/12/31 11:09:12;;;;;;;;;;;5.60;99.90;;;;;;5032614;28;19941;-68
2020/12/31 11:11:39;;;;;;;;;;;5.90;99.90;;;;;;5032125;28;20346;-68
2020/12/31 11:14:06;;;;;;;;;;;6.10;99.90;;;;;;5032726;28;19929;-68
2020/12/31 11:16:32;;;;;;;;;;;6.40;99.90;;;;;;5032551;28;20397;-68
2020/12/31 11:18:58;;;;;;;;;;;6.90;99.90;;;;;;5032421;28;19995;-69
2020/12/31 11:21:25;;;;;;;;;;;7.80;99.90;;;;;;5032155;28;20374;-69
2020/12/31 11:23:51;;;;;;;;;;;8.30;99.90;;;;;;5032430;28;20409;-68
2020/12/31 11:26:18;;;;;;;;;;;8.30;98.70;;;;;;5032260;28;20385;-68
2020/12/31 11:28:46;;;;;;;;;;;8.60;97.10;;;;;;5032642;28;19929;-68
2020/12/31 11:31:12;;;;;;;;;;;9.20;94.80;;;;;;5032160;28;19925;-68
2020/12/31 11:33:38;;;;;;;;;;;9.90;91.60;;;;;;5032505;28;19929;-68
2020/12/31 11:36:04;;;;;;;;;;;10.50;87.70;;;;;;5032374;28;19929;-68
2020/12/31 11:38:31;;;;;;;;;;;11.00;82.30;;;;;;5032122;28;20291;-68
2020/12/31 11:40:57;;;;;;;;;;;11.40;80.00;;;;;;5031908;28;19936;-69
2020/12/31 11:43:23;;;;;;;;;;;11.60;76.80;;;;;;5032192;28;19925;-68
2020/12/31 11:45:49;;;;;;;;;;;11.90;74.80;;;;;;5032434;28;19925;-69
2020/12/31 11:48:15;;;;;;;;;;;12.60;72.30;;;;;;5032222;28;20377;-68
2020/12/31 11:50:41;;;;;;;;;;;12.90;69.20;;;;;;5031776;28;19932;-68
2020/12/31 11:53:06;;;;;;;;;;;12.60;69.20;;;;;;5031710;28;20402;-68
2020/12/31 11:55:33;;;;;;;;;;;12.70;69.10;;;;;;5031381;28;19931;-67
2020/12/31 11:57:59;;;;;;;;;;;12.80;68.00;;;;;;5031376;28;19929;-68
2020/12/31 12:00:25;;;;;;;;;;;12.70;67.50;;;;;;5031286;28;20408;-69
2020/12/31 12:02:51;;;;;;;;;;;12.90;67.10;;;;;;5032071;28;19932;-68
2020/12/31 12:05:17;;;;;;;;;;;12.80;66.60;;;;;;5032135;28;20409;-68
2020/12/31 12:07:45;;;;;;;;;;;13.10;66.90;;;;;;5032790;28;19925;-68
2020/12/31 12:10:11;;;;;;;;;;;13.20;65.30;;;;;;5035696;28;20386;-68
2020/12/31 12:12:38;;;;;;;;;;;12.90;64.10;;;;;;5036148;28;19925;-68
2020/12/31 12:15:05;;;;;;;;;;;12.30;65.20;;;;;;5036203;28;19925;-68
2020/12/31 12:17:31;;;;;;;;;;;11.90;66.80;;;;;;5035982;28;19929;-68
2020/12/31 12:19:57;;;;;;;;;;;11.50;67.70;;;;;;5035519;28;19925;-68
2020/12/31 12:22:23;;;;;;;;;;;11.20;69.20;;;;;;5035754;28;19925;-69
2020/12/31 12:24:49;;;;;;;;;;;11.80;70.10;;;;;;5036089;28;19929;-68
2020/12/31 12:27:14;;;;;;;;;;;12.30;67.80;;;;;;5035588;28;19925;-69
2020/12/31 12:29:41;;;;;;;;;;;12.50;66.30;;;;;;5035735;28;19939;-69
2020/12/31 12:32:10;;;;;;;;;;;11.90;66.40;;;;;;5035214;28;19925;-68
2020/12/31 12:34:36;;;;;;;;;;;11.50;68.10;;;;;;5035273;28;19994;-69
2020/12/31 12:37:03;;;;;;;;;;;11.10;70.00;;;;;;5034876;28;20063;-68
2020/12/31 12:39:28;;;;;;;;;;;11.00;71.70;;;;;;5034997;28;19987;-69
2020/12/31 12:41:56;;;;;;;;;;;11.00;72.60;;;;;;5034901;28;19925;-70
2020/12/31 12:44:22;;;;;;;;;;;11.20;71.70;;;;;;5035040;28;19936;-68
2020/12/31 12:46:48;;;;;;;;;;;11.30;70.50;;;;;;5034558;28;19926;-69
2020/12/31 12:49:14;;;;;;;;;;;11.10;70.50;;;;;;5034386;28;19987;-69
2020/12/31 12:51:41;;;;;;;;;;;11.10;71.10;;;;;;5033839;28;19925;-68
2020/12/31 12:54:06;;;;;;;;;;;10.90;70.50;;;;;;5034136;28;19932;-69
2020/12/31 12:56:32;;;;;;;;;;;10.50;72.00;;;;;;5034697;28;19928;-67
2020/12/31 12:58:58;;;;;;;;;;;10.00;72.70;;;;;;5034071;28;19925;-68
2020/12/31 13:01:24;;;;;;;;;;;9.70;74.90;;;;;;5033612;28;20102;-68
2020/12/31 13:03:51;;;;;;;;;;;9.70;75.00;;;;;;5033920;28;19925;-68
2020/12/31 13:06:17;;;;;;;;;;;9.50;76.20;;;;;;5033962;28;19925;-68
2020/12/31 13:08:43;;;;;;;;;;;9.30;77.10;;;;;;5033737;28;19932;-68
2020/12/31 13:11:09;;;;;;;;;;;9.10;78.20;;;;;;5033775;28;19999;-68
2020/12/31 13:13:37;;;;;;;;;;;8.80;79.70;;;;;;5034125;28;20440;-68
2020/12/31 13:16:05;;;;;;;;;;;8.70;80.30;;;;;;5033915;28;20425;-68
2020/12/31 13:18:31;;;;;;;;;;;9.10;80.50;;;;;;5033903;28;19929;-68
2020/12/31 13:20:58;;;;;;;;;;;9.20;79.40;;;;;;5032727;28;19979;-68
2020/12/31 13:23:25;;;;;;;;;;;9.60;78.90;;;;;;5033970;28;19925;-69
2020/12/31 13:25:51;;;;;;;;;;;9.90;77.70;;;;;;5033775;28;19925;-68
2020/12/31 13:28:17;;;;;;;;;;;10.50;75.20;;;;;;5033739;28;19932;-69
2020/12/31 13:30:43;;;;;;;;;;;10.80;74.10;;;;;;5033167;28;19925;-68
2020/12/31 13:33:09;;;;;;;;;;;11.40;70.80;;;;;;5033469;28;19948;-69
2020/12/31 13:35:35;;;;;;;;;;;10.80;70.20;;;;;;5033483;28;19925;-68
2020/12/31 13:38:02;;;;;;;;;;;10.30;73.30;;;;;;5033984;28;19925;-68
2020/12/31 13:40:28;;;;;;;;;;;10.20;74.10;;;;;;5033562;28;20301;-68
2020/12/31 13:42:53;;;;;;;;;;;9.80;74.60;;;;;;5033790;28;19932;-68
2020/12/31 13:45:19;;;;;;;;;;;9.20;77.30;;;;;;5033663;28;19929;-68
2020/12/31 13:47:46;;;;;;;;;;;8.90;79.30;;;;;;5033658;28;19929;-68
2020/12/31 13:50:12;;;;;;;;;;;8.90;80.70;;;;;;5033470;28;19930;-68
2020/12/31 13:52:39;;;;;;;;;;;9.10;80.40;;;;;;5033611;28;20449;-67
2020/12/31 13:55:07;;;;;;;;;;;9.00;80.40;;;;;;5033536;28;19968;-67
2020/12/31 13:57:33;;;;;;;;;;;8.50;82.30;;;;;;5033588;28;19929;-68
2020/12/31 13:59:58;;;;;;;;;;;8.20;83.90;;;;;;5032980;28;19956;-68
2020/12/31 14:02:24;;;;;;;;;;;7.80;86.50;;;;;;5033324;28;19939;-67
2020/12/31 14:04:50;;;;;;;;;;;7.40;89.80;;;;;;5033585;28;20352;-67
2020/12/31 14:07:16;;;;;;;;;;;7.10;92.40;;;;;;5033325;28;19925;-68
2020/12/31 14:09:42;;;;;;;;;;;7.00;93.70;;;;;;5033325;28;20397;-68
2020/12/31 14:12:09;;;;;;;;;;;6.70;95.90;;;;;;5032838;28;19926;-68
2020/12/31 14:14:35;;;;;;;;;;;6.70;97.10;;;;;;5033190;28;19929;-68
2020/12/31 14:17:01;;;;;;;;;;;6.40;99.40;;;;;;5033075;28;20027;-68
2020/12/31 14:19:27;;;;;;;;;;;6.40;99.90;;;;;;5033119;28;19932;-68
2020/12/31 14:21:53;;;;;;;;;;;6.40;99.90;;;;;;5033238;28;20385;-68
2020/12/31 14:24:19;;;;;;;;;;;6.20;99.90;;;;;;5033666;28;19945;-68
2020/12/31 14:26:45;;;;;;;;;;;6.30;99.90;;;;;;5033364;28;20305;-68